Time;durP1;ratioP1;P1;durP2;ratioP2;P2;SDS_P1;SDS_P2;PMS_P1;PMS_P2;Temp;Humidity;BMP_temperature;BMP_pressure;BME280_temperature;BME280_humidity;BME280_pressure;Samples;Min_cycle;Max_cycle;Signal;HPM_P1;HPM_P2
2023/10/30 00:02:18;;;;;;;0.10;0.10;;;10.90;99.90;;;;;;4828167;29;20049;-84
2023/10/30 00:04:44;;;;;;;0.10;0.10;;;11.00;99.90;;;;;;4836127;29;20060;-85
2023/10/30 00:07:10;;;;;;;0.20;0.20;;;10.90;99.90;;;;;;4836701;29;20491;-86
2023/10/30 00:09:35;;;;;;;0.20;0.20;;;10.90;99.90;;;;;;4820893;29;20050;-85
2023/10/30 00:12:01;;;;;;;0.20;0.20;;;10.90;99.90;;;;;;4823363;29;20069;-86
2023/10/30 00:14:27;;;;;;;0.13;0.13;;;10.90;99.90;;;;;;4832115;29;20058;-82
2023/10/30 00:16:52;;;;;;;0.10;0.10;;;10.90;99.90;;;;;;4808535;29;20108;-85
2023/10/30 00:19:18;;;;;;;0.10;0.10;;;10.80;99.90;;;;;;4837822;29;20045;-85
2023/10/30 00:21:44;;;;;;;0.20;0.20;;;10.80;99.90;;;;;;4831451;29;20110;-84
2023/10/30 00:24:09;;;;;;;0.10;0.10;;;10.80;99.90;;;;;;4821010;29;20043;-86
2023/10/30 00:26:39;;;;;;;0.10;0.10;;;10.80;99.90;;;;;;4818220;29;20054;-85
2023/10/30 00:29:05;;;;;;;0.10;0.10;;;10.80;99.90;;;;;;4817474;29;20095;-85
2023/10/30 00:31:30;;;;;;;0.10;0.10;;;10.70;99.90;;;;;;4818210;29;20046;-80
2023/10/30 00:33:56;;;;;;;0.10;0.10;;;10.70;99.90;;;;;;4818786;29;20060;-86
2023/10/30 00:36:21;;;;;;;0.10;0.10;;;10.70;99.90;;;;;;4803629;29;20121;-83
2023/10/30 00:38:47;;;;;;;0.10;0.10;;;10.70;99.90;;;;;;4817112;29;20074;-84
2023/10/30 00:41:13;;;;;;;0.20;0.20;;;10.70;99.90;;;;;;4819153;29;21664;-87
2023/10/30 00:43:40;;;;;;;0.20;0.20;;;10.70;99.90;;;;;;4826597;29;20062;-87
2023/10/30 00:46:08;;;;;;;0.10;0.10;;;10.70;99.90;;;;;;4819531;29;20103;-86
2023/10/30 00:48:34;;;;;;;0.20;0.20;;;10.60;99.90;;;;;;4818160;29;20054;-86
2023/10/30 00:51:00;;;;;;;0.10;0.10;;;10.60;99.90;;;;;;4822791;29;20068;-84
2023/10/30 00:53:26;;;;;;;0.10;0.10;;;10.60;99.90;;;;;;4833523;29;20559;-86
2023/10/30 00:55:51;;;;;;;0.10;0.10;;;10.60;99.90;;;;;;4820274;29;20050;-82
2023/10/30 00:58:18;;;;;;;0.10;0.10;;;10.50;99.90;;;;;;4826359;29;20091;-85
2023/10/30 01:00:44;;;;;;;0.15;0.15;;;10.50;99.90;;;;;;4818402;29;20116;-85
2023/10/30 01:03:09;;;;;;;0.10;0.10;;;10.50;99.90;;;;;;4821372;29;20062;-81
2023/10/30 01:05:35;;;;;;;0.20;0.20;;;10.50;99.90;;;;;;4827703;29;20080;-83
2023/10/30 01:08:01;;;;;;;0.13;0.13;;;10.50;99.90;;;;;;4818628;29;20050;-83
2023/10/30 01:10:27;;;;;;;0.10;0.10;;;10.50;99.90;;;;;;4831983;29;20042;-83
2023/10/30 01:12:52;;;;;;;0.13;0.13;;;10.40;99.90;;;;;;4833741;29;20050;-83
2023/10/30 01:15:18;;;;;;;0.10;0.10;;;10.40;99.90;;;;;;4847497;29;20061;-86
2023/10/30 01:17:44;;;;;;;0.17;0.17;;;10.40;99.90;;;;;;4843063;29;20087;-86
2023/10/30 01:20:10;;;;;;;0.10;0.10;;;10.40;99.90;;;;;;4825048;29;20050;-85
2023/10/30 01:22:36;;;;;;;0.10;0.10;;;10.30;99.90;;;;;;4820446;29;20073;-86
2023/10/30 01:25:02;;;;;;;0.15;0.15;;;10.40;99.90;;;;;;4818231;29;20495;-86
2023/10/30 01:27:27;;;;;;;0.20;0.20;;;10.30;99.90;;;;;;4821485;29;20168;-84
2023/10/30 01:29:53;;;;;;;0.10;0.10;;;10.30;99.90;;;;;;4826633;29;20141;-80
2023/10/30 01:32:19;;;;;;;0.10;0.10;;;10.30;99.90;;;;;;4835540;29;20054;-84
2023/10/30 01:34:44;;;;;;;0.10;0.10;;;10.30;99.90;;;;;;4822749;29;20046;-85
2023/10/30 01:37:13;;;;;;;0.10;0.10;;;10.30;99.90;;;;;;4827860;29;20085;-83
2023/10/30 01:39:43;;;;;;;0.10;0.10;;;10.30;99.90;;;;;;4834653;29;20053;-81
2023/10/30 01:42:09;;;;;;;0.10;0.10;;;10.20;99.90;;;;;;4832938;29;20058;-85
2023/10/30 01:44:52;;;;;;;0.10;0.10;;;10.20;99.90;;;;;;4821128;29;20047;-85
2023/10/30 01:47:17;;;;;;;0.10;0.10;;;10.20;99.90;;;;;;4826095;29;20038;-81
2023/10/30 01:49:43;;;;;;;0.10;0.10;;;10.20;99.90;;;;;;4821166;29;20543;-85
2023/10/30 01:52:08;;;;;;;0.10;0.10;;;10.10;99.90;;;;;;4827732;29;20045;-84
2023/10/30 01:54:34;;;;;;;0.15;0.15;;;10.10;99.90;;;;;;4820678;29;20061;-86
2023/10/30 01:57:00;;;;;;;0.20;0.20;;;10.10;99.90;;;;;;4820642;29;20495;-85
2023/10/30 01:59:27;;;;;;;0.10;0.10;;;10.10;99.90;;;;;;4824970;29;20045;-85
2023/10/30 02:01:53;;;;;;;0.10;0.10;;;10.10;99.90;;;;;;4833993;29;20054;-83
2023/10/30 02:04:19;;;;;;;0.20;0.20;;;10.10;99.90;;;;;;4824463;29;20048;-85
2023/10/30 02:06:45;;;;;;;0.20;0.20;;;10.00;99.90;;;;;;4830044;29;20042;-82
2023/10/30 02:09:11;;;;;;;0.10;0.10;;;10.10;99.90;;;;;;4821182;29;20060;-84
2023/10/30 02:11:36;;;;;;;0.17;0.17;;;10.10;99.90;;;;;;4843541;29;20102;-85
2023/10/30 02:14:03;;;;;;;0.10;0.10;;;10.10;99.90;;;;;;4838340;29;20062;-86
2023/10/30 02:16:28;;;;;;;0.10;0.10;;;10.10;99.90;;;;;;4834137;29;20514;-84
2023/10/30 02:18:54;;;;;;;0.10;0.10;;;10.00;99.90;;;;;;4826814;29;20042;-82
2023/10/30 02:21:20;;;;;;;0.10;0.10;;;10.00;99.90;;;;;;4820688;29;20466;-83
2023/10/30 02:23:46;;;;;;;0.10;0.10;;;10.00;99.90;;;;;;4820582;29;20054;-84
2023/10/30 02:26:12;;;;;;;0.17;0.17;;;10.00;99.90;;;;;;4834752;29;20404;-87
2023/10/30 02:28:38;;;;;;;0.10;0.10;;;9.90;99.90;;;;;;4832672;29;20487;-83
2023/10/30 02:31:03;;;;;;;0.20;0.20;;;9.90;99.90;;;;;;4824864;29;20114;-83
2023/10/30 02:33:29;;;;;;;0.20;0.20;;;10.00;99.90;;;;;;4833120;29;20110;-82
2023/10/30 02:35:55;;;;;;;0.20;0.20;;;9.90;99.90;;;;;;4827571;29;20196;-83
2023/10/30 02:38:20;;;;;;;0.20;0.20;;;9.90;99.90;;;;;;4831728;29;20515;-84
2023/10/30 02:40:46;;;;;;;0.10;0.10;;;9.90;99.90;;;;;;4826747;29;20110;-83
2023/10/30 02:43:12;;;;;;;0.10;0.10;;;9.90;99.90;;;;;;4828084;29;20119;-82
2023/10/30 02:45:37;;;;;;;0.20;0.20;;;9.90;99.90;;;;;;4836585;29;20046;-83
2023/10/30 02:48:04;;;;;;;0.20;0.20;;;9.90;99.90;;;;;;4845869;29;20092;-84
2023/10/30 02:50:30;;;;;;;0.20;0.20;;;9.90;99.90;;;;;;4833563;29;20798;-84
2023/10/30 02:52:56;;;;;;;0.20;0.20;;;9.90;99.90;;;;;;4826817;29;20177;-83
2023/10/30 02:55:21;;;;;;;0.15;0.15;;;9.90;99.90;;;;;;4823339;29;20091;-83
2023/10/30 02:57:48;;;;;;;0.20;0.20;;;9.90;99.90;;;;;;4820843;29;20081;-85
2023/10/30 03:00:13;;;;;;;0.15;0.15;;;9.90;99.90;;;;;;4823215;29;20038;-84
2023/10/30 03:02:39;;;;;;;0.10;0.10;;;9.80;99.90;;;;;;4827377;29;20050;-85
2023/10/30 03:05:05;;;;;;;0.10;0.10;;;9.80;99.90;;;;;;4827266;29;20745;-82
2023/10/30 03:07:32;;;;;;;0.10;0.10;;;10.40;99.90;;;;;;4828143;29;20609;-85
2023/10/30 03:09:57;;;;;;;0.10;0.10;;;9.90;99.90;;;;;;4824339;29;20078;-82
2023/10/30 03:12:23;;;;;;;0.20;0.20;;;9.90;99.90;;;;;;4829207;29;20077;-83
2023/10/30 03:14:49;;;;;;;0.10;0.10;;;9.80;99.90;;;;;;4821459;29;20689;-85
2023/10/30 03:17:15;;;;;;;0.20;0.20;;;9.90;99.90;;;;;;4818528;29;20058;-82
2023/10/30 03:19:40;;;;;;;0.17;0.17;;;9.90;99.90;;;;;;4828374;29;20054;-85
2023/10/30 03:22:06;;;;;;;0.20;0.20;;;9.90;99.90;;;;;;4825703;29;20049;-85
2023/10/30 03:24:31;;;;;;;0.20;0.20;;;9.90;99.90;;;;;;4831786;29;20685;-86
2023/10/30 03:26:57;;;;;;;0.20;0.20;;;9.90;99.90;;;;;;4838622;29;20054;-86
2023/10/30 03:29:24;;;;;;;0.20;0.20;;;10.00;99.90;;;;;;4833174;29;20061;-81
2023/10/30 03:31:52;;;;;;;0.10;0.10;;;10.00;99.90;;;;;;4834780;29;20534;-83
2023/10/30 03:34:19;;;;;;;0.20;0.20;;;10.00;99.90;;;;;;4831043;29;20067;-85
2023/10/30 03:36:45;;;;;;;0.10;0.10;;;10.00;99.90;;;;;;4827183;29;20514;-84
2023/10/30 03:39:10;;;;;;;0.10;0.10;;;10.00;99.90;;;;;;4836296;29;20062;-85
2023/10/30 03:41:37;;;;;;;0.10;0.10;;;9.90;99.90;;;;;;4837379;29;20479;-83
2023/10/30 03:44:03;;;;;;;0.20;0.20;;;9.90;99.90;;;;;;4838241;29;20068;-81
2023/10/30 03:46:29;;;;;;;0.20;0.20;;;10.00;99.90;;;;;;4822362;29;20120;-85
2023/10/30 03:48:54;;;;;;;0.10;0.10;;;10.00;99.90;;;;;;4821546;29;20081;-85
2023/10/30 03:51:20;;;;;;;0.10;0.10;;;10.00;99.90;;;;;;4824088;29;20046;-85
2023/10/30 03:53:46;;;;;;;0.20;0.20;;;9.90;99.90;;;;;;4831864;29;20058;-87
2023/10/30 03:56:11;;;;;;;0.20;0.20;;;9.90;99.90;;;;;;4834131;29;20534;-87
2023/10/30 03:58:37;;;;;;;0.13;0.13;;;10.00;99.90;;;;;;4819818;29;20634;-86
2023/10/30 04:01:08;;;;;;;0.10;0.10;;;9.90;99.90;;;;;;4823759;29;20098;-84
2023/10/30 04:03:34;;;;;;;0.20;0.20;;;9.90;99.90;;;;;;4832329;29;20137;-86
2023/10/30 04:06:04;;;;;;;0.10;0.10;;;9.90;99.90;;;;;;4827697;29;20143;-84
2023/10/30 04:08:30;;;;;;;0.10;0.10;;;9.90;99.90;;;;;;4821934;29;20050;-84
2023/10/30 04:10:56;;;;;;;0.15;0.15;;;9.90;99.90;;;;;;4818011;29;20105;-86
2023/10/30 04:13:22;;;;;;;0.10;0.10;;;9.90;99.90;;;;;;4819832;29;20147;-85
2023/10/30 04:15:47;;;;;;;0.20;0.20;;;9.90;99.90;;;;;;4823360;29;20379;-84
2023/10/30 04:18:13;;;;;;;0.20;0.20;;;9.90;99.90;;;;;;4829337;29;20046;-85
2023/10/30 04:20:39;;;;;;;0.20;0.20;;;9.90;99.90;;;;;;4826295;29;20041;-82
2023/10/30 04:23:04;;;;;;;0.10;0.10;;;9.90;99.90;;;;;;4819069;29;20046;-83
2023/10/30 04:25:30;;;;;;;0.10;0.10;;;9.90;99.90;;;;;;4821048;29;20139;-86
2023/10/30 04:27:55;;;;;;;0.15;0.15;;;10.20;99.90;;;;;;4832870;29;20054;-83
2023/10/30 04:30:21;;;;;;;0.13;0.13;;;9.90;99.90;;;;;;4836934;29;20673;-81
2023/10/30 04:32:47;;;;;;;0.20;0.20;;;9.90;99.90;;;;;;4833647;29;20071;-83
2023/10/30 04:35:12;;;;;;;0.20;0.20;;;9.90;99.90;;;;;;4829889;29;20063;-86
2023/10/30 04:37:38;;;;;;;0.20;0.20;;;10.00;99.90;;;;;;4822089;29;20104;-84
2023/10/30 04:40:04;;;;;;;0.10;0.10;;;9.90;99.90;;;;;;4838937;29;20648;-84
2023/10/30 04:42:30;;;;;;;0.20;0.20;;;9.90;99.90;;;;;;4839332;29;20601;-84
2023/10/30 04:44:56;;;;;;;0.20;0.20;;;9.90;99.90;;;;;;4837702;29;20061;-83
2023/10/30 04:47:22;;;;;;;0.10;0.10;;;9.50;99.90;;;;;;4843038;29;20095;-84
2023/10/30 04:49:49;;;;;;;0.10;0.10;;;9.90;99.90;;;;;;4818360;29;20046;-82
2023/10/30 04:52:15;;;;;;;0.10;0.10;;;9.90;99.90;;;;;;4817533;29;20054;-82
2023/10/30 04:54:40;;;;;;;0.10;0.10;;;9.90;99.90;;;;;;4819211;29;20499;-83
2023/10/30 04:57:06;;;;;;;0.10;0.10;;;9.90;99.90;;;;;;4823815;29;20136;-82
2023/10/30 04:59:32;;;;;;;0.20;0.20;;;10.10;99.90;;;;;;4818936;29;20054;-84
2023/10/30 05:01:57;;;;;;;0.20;0.20;;;10.00;99.90;;;;;;4817408;29;20457;-84
2023/10/30 05:04:23;;;;;;;0.17;0.17;;;10.00;99.90;;;;;;4818305;29;20464;-84
2023/10/30 05:06:49;;;;;;;0.20;0.20;;;10.00;99.90;;;;;;4822617;29;20706;-84
2023/10/30 05:09:14;;;;;;;0.10;0.10;;;9.90;99.90;;;;;;4834021;29;20083;-82
2023/10/30 05:11:40;;;;;;;0.10;0.10;;;9.90;99.90;;;;;;4825150;29;20050;-84
2023/10/30 05:14:07;;;;;;;0.10;0.10;;;9.90;99.90;;;;;;4835072;29;20136;-83
2023/10/30 05:16:33;;;;;;;0.15;0.15;;;9.90;99.90;;;;;;4838868;29;20083;-83
2023/10/30 05:18:59;;;;;;;0.20;0.20;;;9.90;99.90;;;;;;4823791;29;20487;-82
2023/10/30 05:21:25;;;;;;;0.10;0.10;;;9.90;99.90;;;;;;4825279;29;20049;-83
2023/10/30 05:23:50;;;;;;;0.10;0.10;;;9.90;99.90;;;;;;4831945;29;20081;-85
2023/10/30 05:26:16;;;;;;;0.20;0.20;;;9.90;99.90;;;;;;4838382;29;20054;-85
2023/10/30 05:28:42;;;;;;;0.20;0.20;;;9.90;99.90;;;;;;4824882;29;20054;-83
2023/10/30 05:31:08;;;;;;;0.20;0.20;;;10.00;99.90;;;;;;4838937;29;20129;-84
2023/10/30 05:33:34;;;;;;;0.20;0.20;;;9.90;99.90;;;;;;4828794;29;20466;-80
2023/10/30 05:36:02;;;;;;;0.10;0.10;;;9.90;99.90;;;;;;4821729;29;20141;-84
2023/10/30 05:38:28;;;;;;;0.20;0.20;;;9.90;99.90;;;;;;4831897;29;20038;-82
2023/10/30 05:40:54;;;;;;;0.20;0.20;;;9.90;99.90;;;;;;4838453;29;20114;-84
2023/10/30 05:43:19;;;;;;;0.10;0.10;;;9.90;99.90;;;;;;4837575;29;20065;-84
2023/10/30 05:45:47;;;;;;;0.20;0.20;;;9.90;99.90;;;;;;4822831;29;20073;-85
2023/10/30 05:48:13;;;;;;;0.20;0.20;;;9.80;99.90;;;;;;4846033;29;20524;-87
2023/10/30 05:50:41;;;;;;;0.20;0.20;;;9.80;99.90;;;;;;4835721;29;20110;-84
2023/10/30 05:53:07;;;;;;;0.10;0.10;;;9.80;99.90;;;;;;4833422;29;20061;-85
2023/10/30 05:55:33;;;;;;;0.20;0.20;;;9.80;99.90;;;;;;4836740;29;20140;-84
2023/10/30 05:57:58;;;;;;;0.20;0.20;;;9.80;99.90;;;;;;4823148;29;20138;-83
2023/10/30 06:00:24;;;;;;;0.20;0.20;;;9.90;99.90;;;;;;4832792;29;20118;-84
2023/10/30 06:02:53;;;;;;;0.20;0.20;;;9.80;99.90;;;;;;4829434;29;20375;-83
2023/10/30 06:05:19;;;;;;;0.17;0.17;;;9.70;99.90;;;;;;4841586;29;20050;-83
2023/10/30 06:07:45;;;;;;;0.13;0.13;;;9.70;99.90;;;;;;4823054;29;20049;-84
2023/10/30 06:10:11;;;;;;;0.17;0.17;;;9.70;99.90;;;;;;4820937;29;20124;-81
2023/10/30 06:12:38;;;;;;;0.10;0.10;;;9.70;99.90;;;;;;4836691;29;20057;-82
2023/10/30 06:15:04;;;;;;;0.10;0.10;;;9.70;99.90;;;;;;4840225;29;20041;-83
2023/10/30 06:17:30;;;;;;;0.20;0.20;;;9.80;99.90;;;;;;4829623;29;20085;-84
2023/10/30 06:19:56;;;;;;;0.10;0.10;;;9.70;99.90;;;;;;4821526;29;20085;-83
2023/10/30 06:22:21;;;;;;;0.20;0.20;;;9.70;99.90;;;;;;4822585;29;20445;-83
2023/10/30 06:24:47;;;;;;;0.20;0.20;;;9.70;99.90;;;;;;4820441;29;20393;-82
2023/10/30 06:27:13;;;;;;;0.10;0.10;;;9.60;99.90;;;;;;4823831;29;20038;-80
2023/10/30 06:29:39;;;;;;;0.20;0.20;;;9.60;99.90;;;;;;4823719;29;20073;-82
2023/10/30 06:32:05;;;;;;;0.20;0.20;;;9.60;99.90;;;;;;4820969;29;20047;-84
2023/10/30 06:34:33;;;;;;;0.13;0.13;;;9.60;99.90;;;;;;4821900;29;20059;-85
2023/10/30 06:36:59;;;;;;;0.20;0.20;;;9.70;99.90;;;;;;4820715;29;20415;-85
2023/10/30 06:39:25;;;;;;;0.20;0.20;;;9.60;99.90;;;;;;4821129;29;20054;-86
2023/10/30 06:41:55;;;;;;;0.20;0.20;;;9.60;99.90;;;;;;4835309;29;20061;-84
2023/10/30 06:44:22;;;;;;;0.20;0.20;;;9.60;99.90;;;;;;4820924;29;20086;-83
2023/10/30 06:46:50;;;;;;;0.10;0.10;;;9.60;99.90;;;;;;4819459;29;20050;-85
2023/10/30 06:49:16;;;;;;;0.10;0.10;;;9.60;99.90;;;;;;4824245;29;20167;-84
2023/10/30 06:51:42;;;;;;;0.20;0.20;;;9.60;99.90;;;;;;4820997;29;20050;-83
2023/10/30 06:54:14;;;;;;;0.20;0.20;;;9.60;99.90;;;;;;4832172;29;20137;-84
2023/10/30 06:56:40;;;;;;;0.10;0.10;;;9.70;99.90;;;;;;4837013;29;20052;-82
2023/10/30 06:59:06;;;;;;;0.20;0.20;;;9.70;99.90;;;;;;4833200;29;20054;-82
2023/10/30 07:01:44;;;;;;;0.10;0.10;;;9.70;99.90;;;;;;4825739;29;20038;-83
2023/10/30 07:04:13;;;;;;;0.10;0.10;;;9.80;99.90;;;;;;4836132;29;20160;-83
2023/10/30 07:06:41;;;;;;;0.13;0.13;;;9.80;99.90;;;;;;4839378;29;20415;-83
2023/10/30 07:09:10;;;;;;;0.10;0.10;;;9.80;99.90;;;;;;4830559;29;20054;-82
2023/10/30 07:11:37;;;;;;;0.10;0.10;;;9.80;99.90;;;;;;4832081;29;20062;-83
2023/10/30 07:14:03;;;;;;;0.10;0.10;;;9.90;99.90;;;;;;4841116;29;20054;-85
2023/10/30 07:16:33;;;;;;;0.10;0.10;;;9.90;99.90;;;;;;4835358;29;20038;-83
2023/10/30 07:18:59;;;;;;;0.10;0.10;;;9.90;99.90;;;;;;4836599;29;20085;-81
2023/10/30 07:21:27;;;;;;;0.20;0.20;;;10.00;99.90;;;;;;4829592;29;20046;-83
2023/10/30 07:23:53;;;;;;;0.10;0.10;;;10.00;99.90;;;;;;4832809;29;20100;-86
2023/10/30 07:26:21;;;;;;;0.20;0.20;;;10.10;99.90;;;;;;4826270;29;20690;-83
2023/10/30 07:28:51;;;;;;;0.10;0.10;;;10.10;99.90;;;;;;4816640;29;20133;-84
2023/10/30 07:31:18;;;;;;;0.20;0.20;;;10.20;99.90;;;;;;4821194;29;20068;-83
2023/10/30 07:33:44;;;;;;;0.10;0.10;;;10.20;99.90;;;;;;4819848;29;20053;-85
2023/10/30 07:36:10;;;;;;;0.10;0.10;;;10.20;99.90;;;;;;4820511;29;20071;-85
2023/10/30 07:38:36;;;;;;;0.10;0.10;;;10.30;99.90;;;;;;4831240;29;20054;-84
2023/10/30 07:41:02;;;;;;;0.10;0.10;;;10.40;99.90;;;;;;4835949;29;20056;-80
2023/10/30 07:43:29;;;;;;;0.20;0.20;;;10.40;99.90;;;;;;4832084;29;20114;-82
2023/10/30 07:45:54;;;;;;;0.20;0.20;;;10.50;99.90;;;;;;4837686;29;20058;-82
2023/10/30 07:48:20;;;;;;;0.20;0.20;;;10.50;99.90;;;;;;4820604;29;20068;-82
2023/10/30 07:50:47;;;;;;;0.20;0.20;;;10.60;99.90;;;;;;4824459;29;20080;-81
2023/10/30 07:53:14;;;;;;;0.20;0.20;;;10.60;99.90;;;;;;4823414;29;20050;-81
2023/10/30 07:55:40;;;;;;;0.20;0.20;;;10.70;99.90;;;;;;4818732;29;20649;-84
2023/10/30 07:58:06;;;;;;;0.20;0.20;;;10.70;99.90;;;;;;4819569;29;20043;-82
2023/10/30 08:00:32;;;;;;;0.20;0.20;;;10.80;99.90;;;;;;4816900;29;20192;-83
2023/10/30 08:02:59;;;;;;;0.20;0.20;;;10.90;99.90;;;;;;4823220;29;20058;-84
2023/10/30 08:05:26;;;;;;;0.20;0.20;;;11.00;99.90;;;;;;4823733;29;20050;-84
2023/10/30 08:07:51;;;;;;;0.20;0.20;;;11.00;99.90;;;;;;4819567;29;20046;-78
2023/10/30 08:10:17;;;;;;;0.20;0.20;;;11.10;99.90;;;;;;4817223;29;20522;-83
2023/10/30 08:12:43;;;;;;;0.20;0.20;;;11.20;99.90;;;;;;4817803;29;20403;-83
2023/10/30 08:15:09;;;;;;;0.10;0.10;;;11.20;99.90;;;;;;4819208;29;20478;-84
2023/10/30 08:17:36;;;;;;;0.20;0.20;;;11.20;99.90;;;;;;4815922;29;20141;-84
2023/10/30 08:20:03;;;;;;;0.10;0.10;;;11.30;99.90;;;;;;4819222;29;20042;-83
2023/10/30 08:22:30;;;;;;;0.10;0.10;;;11.20;99.90;;;;;;4819350;29;20157;-83
2023/10/30 08:24:56;;;;;;;0.10;0.10;;;11.30;99.90;;;;;;4815353;29;20045;-84
2023/10/30 08:27:21;;;;;;;0.17;0.17;;;11.40;99.90;;;;;;4815946;29;20042;-81
2023/10/30 08:29:47;;;;;;;0.20;0.20;;;11.40;99.90;;;;;;4818831;29;20145;-83
2023/10/30 08:32:13;;;;;;;0.15;0.15;;;11.40;99.90;;;;;;4817883;29;20117;-80
2023/10/30 08:34:39;;;;;;;0.10;0.10;;;11.40;99.90;;;;;;4816776;29;20491;-83
2023/10/30 08:37:05;;;;;;;0.10;0.10;;;11.50;99.90;;;;;;4819576;29;20118;-83
2023/10/30 08:39:30;;;;;;;0.10;0.10;;;11.50;99.90;;;;;;4819698;29;20411;-83
2023/10/30 08:41:56;;;;;;;0.10;0.10;;;11.60;99.90;;;;;;4817317;29;20448;-83
2023/10/30 08:44:22;;;;;;;0.10;0.10;;;11.60;99.90;;;;;;4824673;29;20396;-81
2023/10/30 08:46:47;;;;;;;0.20;0.20;;;11.60;99.90;;;;;;4828382;29;20049;-83
2023/10/30 08:49:14;;;;;;;0.20;0.10;;;11.70;99.90;;;;;;4819947;29;20051;-84
2023/10/30 08:51:43;;;;;;;0.10;0.10;;;11.70;99.90;;;;;;4818617;29;20074;-82
2023/10/30 08:54:09;;;;;;;0.10;0.10;;;11.70;99.90;;;;;;4815250;29;20199;-83
2023/10/30 08:56:36;;;;;;;0.10;0.10;;;11.90;99.90;;;;;;4818796;29;20448;-82
2023/10/30 08:59:04;;;;;;;0.10;0.10;;;11.80;99.90;;;;;;4817465;29;20122;-82
2023/10/30 09:01:34;;;;;;;0.10;0.10;;;11.90;99.90;;;;;;4818226;29;20100;-83
2023/10/30 09:04:00;;;;;;;0.20;0.20;;;12.00;99.90;;;;;;4820124;29;20137;-82
2023/10/30 09:06:27;;;;;;;0.10;0.10;;;12.00;99.90;;;;;;4829283;29;20106;-84
2023/10/30 09:08:53;;;;;;;0.20;0.20;;;12.00;99.90;;;;;;4816807;29;20074;-84
2023/10/30 09:11:19;;;;;;;0.10;0.10;;;12.10;99.90;;;;;;4821025;29;20099;-83
2023/10/30 09:13:47;;;;;;;0.20;0.20;;;12.10;99.90;;;;;;4818103;29;20141;-84
2023/10/30 09:16:13;;;;;;;0.20;0.20;;;12.20;99.90;;;;;;4818994;29;20510;-82
2023/10/30 09:18:39;;;;;;;0.17;0.17;;;12.30;99.90;;;;;;4831989;29;20050;-84
2023/10/30 09:21:05;;;;;;;0.10;0.10;;;12.40;99.90;;;;;;4820298;29;20183;-88
2023/10/30 09:23:33;;;;;;;0.10;0.10;;;12.40;99.90;;;;;;4814812;29;20063;-78
2023/10/30 09:25:59;;;;;;;0.10;0.10;;;12.40;99.90;;;;;;4817188;29;20151;-77
2023/10/30 09:28:24;;;;;;;0.20;0.20;;;12.40;99.90;;;;;;4814952;29;20054;-79
2023/10/30 09:30:53;;;;;;;0.10;0.10;;;12.50;99.90;;;;;;4810827;29;20576;-79
2023/10/30 09:33:18;;;;;;;0.10;0.10;;;12.50;99.90;;;;;;4817932;29;20050;-79
2023/10/30 09:35:44;;;;;;;0.10;0.10;;;12.50;99.90;;;;;;4817316;29;20535;-81
2023/10/30 09:38:10;;;;;;;0.20;0.20;;;12.60;99.90;;;;;;4817374;29;20058;-81
2023/10/30 09:40:36;;;;;;;0.20;0.20;;;12.60;99.90;;;;;;4814591;29;20057;-78
2023/10/30 09:43:04;;;;;;;0.10;0.10;;;12.60;99.90;;;;;;4818078;29;20415;-78
2023/10/30 09:45:29;;;;;;;0.20;0.20;;;12.60;99.90;;;;;;4819957;29;20062;-82
2023/10/30 09:47:56;;;;;;;0.10;0.10;;;12.70;99.90;;;;;;4817526;29;20112;-83
2023/10/30 09:50:23;;;;;;;0.20;0.20;;;12.70;99.90;;;;;;4817467;29;20142;-79
2023/10/30 09:52:53;;;;;;;0.10;0.10;;;12.70;99.90;;;;;;4816935;29;20062;-79
2023/10/30 09:55:22;;;;;;;0.10;0.10;;;12.80;99.90;;;;;;4806060;29;20111;-80
2023/10/30 09:57:52;;;;;;;0.10;0.10;;;12.80;99.90;;;;;;4809094;29;20073;-79
2023/10/30 10:00:19;;;;;;;0.20;0.20;;;12.90;99.90;;;;;;4816511;29;20126;-79
2023/10/30 10:02:46;;;;;;;0.10;0.10;;;13.00;99.90;;;;;;4818585;29;20042;-79
2023/10/30 10:05:13;;;;;;;0.20;0.20;;;13.00;99.90;;;;;;4816625;29;20103;-79
2023/10/30 10:07:40;;;;;;;0.10;0.10;;;13.10;99.90;;;;;;4821305;29;20109;-79
2023/10/30 10:10:08;;;;;;;0.10;0.10;;;13.20;99.90;;;;;;4822391;29;20118;-79
2023/10/30 10:12:34;;;;;;;0.20;0.20;;;13.30;99.90;;;;;;4820183;29;20053;-79
2023/10/30 10:15:06;;;;;;;0.20;0.20;;;13.30;99.90;;;;;;4820827;29;20067;-78
2023/10/30 10:17:50;;;;;;;0.13;0.13;;;13.40;99.90;;;;;;4821626;29;20046;-78
2023/10/30 10:20:17;;;;;;;0.20;0.20;;;13.50;99.90;;;;;;4817449;29;20057;-77
2023/10/30 10:22:42;;;;;;;0.10;0.10;;;13.60;99.90;;;;;;4822325;29;20113;-79
2023/10/30 10:25:10;;;;;;;0.20;0.20;;;13.70;99.90;;;;;;4822383;29;20527;-79
2023/10/30 10:27:37;;;;;;;0.13;0.13;;;13.70;99.90;;;;;;4820527;29;20055;-72
2023/10/30 10:30:05;;;;;;;0.10;0.10;;;13.80;99.90;;;;;;4821141;29;20077;-72
2023/10/30 10:32:32;;;;;;;0.10;0.10;;;13.90;99.90;;;;;;4825671;29;20062;-72
2023/10/30 10:35:01;;;;;;;0.17;0.17;;;14.00;99.90;;;;;;4831057;29;20096;-72
2023/10/30 10:37:27;;;;;;;0.15;0.15;;;14.10;99.90;;;;;;4822749;29;20620;-72
2023/10/30 10:39:54;;;;;;;0.20;0.20;;;14.20;99.90;;;;;;4830203;29;20042;-72
2023/10/30 10:42:21;;;;;;;0.20;0.20;;;14.30;99.90;;;;;;4816963;29;20278;-73
2023/10/30 10:44:49;;;;;;;0.10;0.10;;;14.40;99.90;;;;;;4820101;29;20051;-73
2023/10/30 10:47:16;;;;;;;0.10;0.10;;;14.50;99.90;;;;;;4818471;29;20483;-72
2023/10/30 10:49:42;;;;;;;0.17;0.17;;;14.60;99.90;;;;;;4820784;29;20057;-72
2023/10/30 10:52:13;;;;;;;0.20;0.20;;;14.60;99.90;;;;;;4818905;29;20051;-71
2023/10/30 10:54:56;;;;;;;0.10;0.10;;;14.60;99.90;;;;;;4818004;29;20534;-71
2023/10/30 10:57:22;;;;;;;0.20;0.20;;;14.60;99.90;;;;;;4815222;29;20522;-70
2023/10/30 10:59:58;;;;;;;0.20;0.20;;;14.70;99.90;;;;;;4819421;29;20117;-71
2023/10/30 11:02:29;;;;;;;0.20;0.20;;;14.80;99.90;;;;;;4816555;29;20806;-71
2023/10/30 11:04:55;;;;;;;0.20;0.20;;;14.90;99.90;;;;;;4824258;29;20050;-71
2023/10/30 11:07:46;;;;;;;0.20;0.20;;;15.00;99.90;;;;;;4820467;29;20468;-72
2023/10/30 11:10:18;;;;;;;0.20;0.20;;;15.10;99.90;;;;;;4818407;29;20476;-71
2023/10/30 11:13:21;;;;;;;0.20;0.20;;;15.10;99.90;;;;;;4818090;29;20130;-70
2023/10/30 11:15:52;;;;;;;0.20;0.20;;;15.20;99.90;;;;;;4818412;29;20070;-70
2023/10/30 11:18:24;;;;;;;0.20;0.20;;;15.30;99.90;;;;;;4819423;29;20129;-70
2023/10/30 11:21:09;;;;;;;0.20;0.20;;;15.30;99.90;;;;;;4817344;29;20327;-70
2023/10/30 11:24:01;;;;;;;0.17;0.17;;;15.30;99.90;;;;;;4818715;29;20484;-70
2023/10/30 11:26:29;;;;;;;0.20;0.20;;;15.30;99.90;;;;;;4819214;29;20442;-69
2023/10/30 11:28:59;;;;;;;0.20;0.20;;;15.30;99.90;;;;;;4815383;29;20130;-70
2023/10/30 11:31:32;;;;;;;0.17;0.17;;;15.40;99.90;;;;;;4810582;29;20038;-70
2023/10/30 11:34:12;;;;;;;0.10;0.10;;;15.40;99.90;;;;;;4819038;29;20510;-69
2023/10/30 11:36:39;;;;;;;0.20;0.20;;;15.40;99.90;;;;;;4819063;29;20055;-69
2023/10/30 11:39:10;;;;;;;0.20;0.20;;;15.30;99.90;;;;;;4824497;29;20085;-70
2023/10/30 11:41:38;;;;;;;0.20;0.20;;;15.30;99.90;;;;;;4823137;29;20066;-70
2023/10/30 11:44:10;;;;;;;0.10;0.10;;;15.40;99.90;;;;;;4817394;29;20064;-71
2023/10/30 11:46:50;;;;;;;0.20;0.20;;;15.30;99.90;;;;;;4832446;29;20073;-72
2023/10/30 11:49:18;;;;;;;0.20;0.20;;;15.30;99.90;;;;;;4818754;29;20053;-71
2023/10/30 11:51:51;;;;;;;0.20;0.20;;;15.20;99.90;;;;;;4819034;29;20074;-71
2023/10/30 11:54:46;;;;;;;0.20;0.20;;;15.10;99.90;;;;;;4819195;29;20039;-71
2023/10/30 11:57:12;;;;;;;0.20;0.20;;;15.10;99.90;;;;;;4833526;29;20058;-70
2023/10/30 11:59:38;;;;;;;0.10;0.10;;;15.20;99.90;;;;;;4824432;29;20133;-71
2023/10/30 12:02:07;;;;;;;0.30;0.30;;;15.30;99.90;;;;;;4828615;29;20050;-70
2023/10/30 12:04:36;;;;;;;0.20;0.20;;;15.40;99.90;;;;;;4824471;29;20050;-70
2023/10/30 12:07:04;;;;;;;0.20;0.20;;;15.50;99.90;;;;;;4818855;29;20053;-71
2023/10/30 12:09:29;;;;;;;0.20;0.20;;;15.70;99.90;;;;;;4818242;29;20066;-71
2023/10/30 12:11:55;;;;;;;0.20;0.20;;;16.00;99.90;;;;;;4818671;29;20517;-71
2023/10/30 12:14:25;;;;;;;0.20;0.20;;;16.20;99.90;;;;;;4833524;29;20061;-71
2023/10/30 12:16:52;;;;;;;0.20;0.20;;;16.60;99.90;;;;;;4818532;29;20055;-71
2023/10/30 12:19:22;;;;;;;0.20;0.20;;;17.20;99.90;;;;;;4817555;29;20050;-70
2023/10/30 12:21:49;;;;;;;0.20;0.20;;;17.60;99.90;;;;;;4817655;29;20368;-71
2023/10/30 12:24:16;;;;;;;0.10;0.10;;;17.80;99.90;;;;;;4825256;29;20584;-71
2023/10/30 12:26:42;;;;;;;0.20;0.20;;;17.90;99.90;;;;;;4809947;29;20499;-70
2023/10/30 12:29:08;;;;;;;0.20;0.20;;;17.90;99.90;;;;;;4816687;29;20045;-70
2023/10/30 12:31:37;;;;;;;0.20;0.20;;;17.90;99.90;;;;;;4818903;29;20046;-71
2023/10/30 12:34:06;;;;;;;0.20;0.20;;;18.00;99.90;;;;;;4818718;29;20065;-71
2023/10/30 12:36:33;;;;;;;0.15;0.15;;;17.90;99.90;;;;;;4818720;29;20085;-73
2023/10/30 12:39:18;;;;;;;0.20;0.20;;;17.70;99.90;;;;;;4820021;29;20046;-72
2023/10/30 12:41:45;;;;;;;0.10;0.10;;;17.70;99.90;;;;;;4799532;29;20569;-72
2023/10/30 12:44:15;;;;;;;0.20;0.20;;;17.90;99.90;;;;;;4822702;29;20495;-77
2023/10/30 12:46:41;;;;;;;0.20;0.20;;;18.40;99.90;;;;;;4817961;29;20055;-72
2023/10/30 12:49:06;;;;;;;0.20;0.20;;;19.00;99.90;;;;;;4822317;29;20133;-72
2023/10/30 12:51:34;;;;;;;0.20;0.20;;;19.70;99.90;;;;;;4818408;29;20054;-72